Terminal Aerodrome Forecast
Issued by NWS Blacksburg, VA

Current Version | Previous Version | Graphics & Text | Print | Product List | Glossary On
Versions: 1 2 3 4 5 6 7 8 9 10 11 12 13 14 15 16 17 18 19 20 21 22 23 24 25 26 27 28 29 30 31 32 33 34 35 36 37 38 39 40 41 42 43 44
000
FTUS41 KRNK 191245 CCA
TAFBLF
TAF COR
KBLF 191245Z 1912/2012 30006KT 5SM BR OVC003
      TEMPO 1913/1914 3SM BR BKN007
     FM191500 29009G17KT P6SM OVC020
     FM191800 29010G18KT P6SM BKN030
     FM192000 30009KT P6SM SCT030
     FM192300 29005KT P6SM FEW040
     FM200400 28004KT P6SM SCT008 BKN015=

USA.gov is the U.S. government's official web portal to all federal, state and local government web resources and services.